Weather at Livermore Municipal Airport

Public forecast

Using degrees Fahrenheit for public forecast. Weather courtesy of forecast.io.

Current aviation weather report (METAR) for Livermore Municipal Airport

Retrieved 2022/08/09 07:53 UTC (36 minutes ago):

KLVK 090753Z AUTO 26003KT 10SM CLR 16/13 A2997 RMK AO2 SLP145 T01610133 402780139

Aviation forecast (TAF) for Livermore Municipal Airport

Retrieved 2022/08/09 06:36 UTC (2 hours ago):

TAF KLVK 090533Z 0906/1006 27005KT P6SM FEW014 TEMPO 0912/0915 BKN014 FM091900 29011KT P6SM SKC FM100500 27005KT P6SM FEW014